createdAt,value
2023-01-09T00:01:25.790Z,22.35
2023-01-09T00:03:54.097Z,22.33
2023-01-09T00:06:22.161Z,22.33
2023-01-09T00:08:50.490Z,22.33
2023-01-09T00:11:18.731Z,22.31
2023-01-09T00:13:47.259Z,22.30
2023-01-09T00:16:15.587Z,22.30
2023-01-09T00:18:45.310Z,22.31
2023-01-09T00:21:13.818Z,22.29
2023-01-09T00:23:42.068Z,22.29
2023-01-09T00:26:11.778Z,22.28
2023-01-09T00:28:40.031Z,22.28
2023-01-09T00:31:08.724Z,22.27
2023-01-09T00:33:38.239Z,22.29
2023-01-09T00:36:08.799Z,22.27
2023-01-09T00:38:37.539Z,22.27
2023-01-09T00:41:05.939Z,22.27
2023-01-09T00:43:36.039Z,22.26
2023-01-09T00:46:05.524Z,22.25
2023-01-09T00:48:33.754Z,22.24
2023-01-09T00:51:01.947Z,22.24
2023-01-09T00:53:32.749Z,22.23
2023-01-09T00:56:02.387Z,22.22
2023-01-09T00:58:30.491Z,22.20
2023-01-09T01:00:58.858Z,22.22
2023-01-09T01:03:27.204Z,22.21
2023-01-09T01:06:12.650Z,22.21
2023-01-09T01:08:42.194Z,22.20
2023-01-09T01:11:11.222Z,22.20
2023-01-09T01:13:39.946Z,22.19
2023-01-09T01:16:08.610Z,22.18
2023-01-09T01:18:36.759Z,22.18
2023-01-09T01:21:07.625Z,22.18
2023-01-09T01:23:35.916Z,22.17
2023-01-09T01:26:08.867Z,22.16
2023-01-09T01:28:37.095Z,22.16
2023-01-09T01:31:05.316Z,22.15
2023-01-09T01:33:35.187Z,22.15
2023-01-09T01:36:04.336Z,22.13
2023-01-09T01:38:32.433Z,22.12
2023-01-09T01:41:00.743Z,22.12
2023-01-09T01:43:30.412Z,22.12
2023-01-09T01:45:58.666Z,22.12
2023-01-09T01:48:28.399Z,22.13
2023-01-09T01:50:58.606Z,22.13
2023-01-09T01:53:28.255Z,22.13
2023-01-09T01:56:01.611Z,22.13
2023-01-09T01:58:31.182Z,22.13
2023-01-09T02:00:59.422Z,22.12
2023-01-09T02:03:28.485Z,22.10
2023-01-09T02:05:56.725Z,22.10
2023-01-09T02:08:24.839Z,22.10
2023-01-09T02:10:53.022Z,22.09
2023-01-09T02:13:21.095Z,22.08
2023-01-09T02:15:58.468Z,22.07
2023-01-09T02:18:54.215Z,22.07
2023-01-09T02:21:26.001Z,22.06
2023-01-09T02:24:26.650Z,22.07
2023-01-09T02:27:08.971Z,22.06
2023-01-09T02:30:10.675Z,22.06
2023-01-09T02:32:44.960Z,22.06
2023-01-09T02:35:20.781Z,22.05
2023-01-09T02:37:53.095Z,22.06
2023-01-09T02:40:23.583Z,22.06
2023-01-09T02:42:51.868Z,22.05
2023-01-09T02:45:21.485Z,22.02
2023-01-09T02:47:49.639Z,22.03
2023-01-09T02:50:18.817Z,22.02
2023-01-09T02:53:10.850Z,22.04
2023-01-09T02:55:52.305Z,22.02
2023-01-09T02:58:25.059Z,22.02
2023-01-09T03:00:58.414Z,22.03
2023-01-09T03:03:28.695Z,22.04
2023-01-09T03:06:00.651Z,22.04
2023-01-09T03:08:32.579Z,22.02
2023-01-09T03:11:01.779Z,22.02
2023-01-09T03:13:32.681Z,22.01
2023-01-09T03:16:03.545Z,22.01
2023-01-09T03:18:31.720Z,22.00
2023-01-09T03:20:59.807Z,22.00
2023-01-09T03:23:28.024Z,22.00
2023-01-09T03:25:56.105Z,22.00
2023-01-09T03:28:27.456Z,21.99
2023-01-09T03:30:55.704Z,21.98
2023-01-09T03:33:25.145Z,21.99
2023-01-09T03:35:53.290Z,21.97
2023-01-09T03:38:21.340Z,21.96
2023-01-09T03:40:49.645Z,21.97
2023-01-09T03:43:17.851Z,21.98
2023-01-09T03:45:46.010Z,21.97
2023-01-09T03:48:14.153Z,21.97
2023-01-09T03:50:45.967Z,21.97
2023-01-09T03:53:14.405Z,21.95
2023-01-09T03:55:45.135Z,21.96
2023-01-09T03:58:13.259Z,21.94
2023-01-09T04:00:41.456Z,21.94
2023-01-09T04:03:09.868Z,21.95
2023-01-09T04:05:38.011Z,21.94
2023-01-09T04:08:07.711Z,21.93
2023-01-09T04:10:35.749Z,21.93
2023-01-09T04:13:04.059Z,21.93
2023-01-09T04:15:32.170Z,21.92
2023-01-09T04:18:00.404Z,21.92
2023-01-09T04:20:28.757Z,21.92
2023-01-09T04:22:57.444Z,21.92
2023-01-09T04:25:27.096Z,21.90
2023-01-09T04:27:55.239Z,21.91
2023-01-09T04:30:23.419Z,21.90
2023-01-09T04:32:52.078Z,21.89
2023-01-09T04:35:20.674Z,21.89
2023-01-09T04:37:48.897Z,21.89
2023-01-09T04:40:19.890Z,21.88
2023-01-09T04:42:49.519Z,21.88
2023-01-09T04:45:17.629Z,21.88
2023-01-09T04:47:46.012Z,21.86
2023-01-09T04:50:14.188Z,21.84
2023-01-09T04:52:42.445Z,21.84
2023-01-09T04:55:11.048Z,21.86
2023-01-09T04:57:39.274Z,21.85
2023-01-09T05:00:12.389Z,21.84
2023-01-09T05:02:40.813Z,21.84
2023-01-09T05:05:11.497Z,21.84
2023-01-09T05:07:40.172Z,21.85
2023-01-09T05:10:09.239Z,21.86
2023-01-09T05:12:37.676Z,21.85
2023-01-09T05:15:07.055Z,21.87
2023-01-09T05:17:36.674Z,21.87
2023-01-09T05:20:05.215Z,21.88
2023-01-09T05:22:33.467Z,21.88
2023-01-09T05:25:01.595Z,21.90
2023-01-09T05:27:30.511Z,21.92
2023-01-09T05:29:58.636Z,21.91
2023-01-09T05:32:26.896Z,21.93
2023-01-09T05:34:56.383Z,21.93
2023-01-09T05:37:24.547Z,21.93
2023-01-09T05:39:52.657Z,21.93
2023-01-09T05:42:20.791Z,21.94
2023-01-09T05:44:48.973Z,21.93
2023-01-09T05:47:17.375Z,21.93
2023-01-09T05:49:45.427Z,21.93
2023-01-09T05:52:14.971Z,21.92
2023-01-09T05:54:43.031Z,21.93
2023-01-09T05:57:11.171Z,21.94
2023-01-09T05:59:39.320Z,21.95
2023-01-09T06:02:07.522Z,21.93
2023-01-09T06:04:35.649Z,21.93
2023-01-09T06:07:03.830Z,21.94
2023-01-09T06:09:33.387Z,21.95
2023-01-09T06:12:01.537Z,21.93
2023-01-09T06:14:29.857Z,21.94
2023-01-09T06:16:58.034Z,21.95
2023-01-09T06:19:26.108Z,21.94
2023-01-09T06:21:54.291Z,21.94
2023-01-09T06:24:22.490Z,21.94
2023-01-09T06:26:51.935Z,21.94
2023-01-09T06:29:20.279Z,21.96
2023-01-09T06:31:48.355Z,21.96
2023-01-09T06:34:16.614Z,21.97
2023-01-09T06:36:44.726Z,21.97
2023-01-09T06:39:14.187Z,21.98
2023-01-09T06:41:42.365Z,21.98
2023-01-09T06:44:11.922Z,21.96
2023-01-09T06:46:40.176Z,21.96
2023-01-09T06:49:10.046Z,21.97
2023-01-09T06:51:38.463Z,21.97
2023-01-09T06:54:06.603Z,21.99
2023-01-09T06:56:34.857Z,21.98
2023-01-09T06:59:02.895Z,21.97
2023-01-09T07:01:32.500Z,21.98
2023-01-09T07:04:00.756Z,21.99
2023-01-09T07:06:29.510Z,21.99
2023-01-09T07:08:57.745Z,21.98
2023-01-09T07:11:25.842Z,21.99
2023-01-09T07:13:54.102Z,21.99
2023-01-09T07:16:22.437Z,22.00
2023-01-09T07:18:52.582Z,22.02
2023-01-09T07:21:20.840Z,22.02
2023-01-09T07:23:48.952Z,22.03
2023-01-09T07:26:17.163Z,22.04
2023-01-09T07:28:45.368Z,22.06
2023-01-09T07:31:13.720Z,22.06
2023-01-09T07:33:41.918Z,22.06
2023-01-09T07:36:12.583Z,22.06
2023-01-09T07:38:40.918Z,22.05
2023-01-09T07:41:09.235Z,22.06
2023-01-09T07:43:37.578Z,22.06
2023-01-09T07:46:06.596Z,22.08
2023-01-09T07:48:34.967Z,22.08
2023-01-09T07:51:03.087Z,22.07
2023-01-09T07:53:32.716Z,22.08
2023-01-09T07:56:00.776Z,22.08
2023-01-09T07:58:28.960Z,22.10
2023-01-09T08:00:57.102Z,22.11
2023-01-09T08:03:26.893Z,22.13
2023-01-09T08:05:55.023Z,22.13
2023-01-09T08:08:23.592Z,22.15
2023-01-09T08:10:53.155Z,22.16
2023-01-09T08:13:21.293Z,22.16
2023-01-09T08:15:49.480Z,22.17
2023-01-09T08:18:17.696Z,22.17
2023-01-09T08:20:45.972Z,22.18
2023-01-09T08:23:14.046Z,22.19
2023-01-09T08:25:42.127Z,22.19
2023-01-09T08:28:11.703Z,22.20
2023-01-09T08:30:39.838Z,22.19
2023-01-09T08:33:07.983Z,22.18
2023-01-09T08:35:37.215Z,22.16
2023-01-09T08:38:05.391Z,22.17
2023-01-09T08:40:33.565Z,22.17
2023-01-09T08:43:18.888Z,22.16
2023-01-09T08:46:05.903Z,22.16
2023-01-09T08:48:34.265Z,22.14
2023-01-09T08:51:02.759Z,22.15
2023-01-09T08:53:31.658Z,22.15
2023-01-09T08:56:00.215Z,22.15
2023-01-09T08:58:28.394Z,22.15
2023-01-09T09:00:58.998Z,22.15
2023-01-09T09:03:27.262Z,22.15
2023-01-09T09:05:55.435Z,22.15
2023-01-09T09:08:23.607Z,22.15
2023-01-09T09:10:51.897Z,22.15
2023-01-09T09:13:20.164Z,22.16
2023-01-09T09:15:48.253Z,22.16
2023-01-09T09:18:17.833Z,22.16
2023-01-09T09:20:46.044Z,22.15
2023-01-09T09:23:14.209Z,22.15
2023-01-09T09:25:42.421Z,22.15
2023-01-09T09:28:11.015Z,22.15
2023-01-09T09:30:39.622Z,22.15
2023-01-09T09:33:07.899Z,22.15
2023-01-09T09:35:38.059Z,22.16
2023-01-09T09:38:06.423Z,22.14
2023-01-09T09:41:04.849Z,22.16
2023-01-09T09:44:14.096Z,22.15
2023-01-09T09:46:43.811Z,22.15
2023-01-09T09:49:14.423Z,22.15
2023-01-09T09:52:09.825Z,22.15
2023-01-09T09:54:41.191Z,22.14
2023-01-09T09:57:11.988Z,22.16
2023-01-09T09:59:40.220Z,22.17
2023-01-09T10:02:16.178Z,22.16
2023-01-09T10:04:46.740Z,22.16
2023-01-09T10:07:18.258Z,22.15
2023-01-09T10:09:48.504Z,22.16
2023-01-09T10:12:27.154Z,22.15
2023-01-09T10:14:55.556Z,22.15
2023-01-09T10:17:30.934Z,22.15
2023-01-09T10:20:25.890Z,22.16
2023-01-09T10:22:58.441Z,22.16
2023-01-09T10:25:29.340Z,22.16
2023-01-09T10:28:03.515Z,22.17
2023-01-09T10:30:36.403Z,22.16
2023-01-09T10:33:10.883Z,22.15
2023-01-09T10:35:50.342Z,22.13
2023-01-09T10:38:22.706Z,22.13
2023-01-09T10:40:52.600Z,22.13
2023-01-09T10:43:26.635Z,22.15
2023-01-09T10:45:55.397Z,22.16
2023-01-09T10:48:25.810Z,22.16
2023-01-09T10:50:54.131Z,22.15
2023-01-09T10:53:24.688Z,22.15
2023-01-09T10:55:54.332Z,22.16
2023-01-09T10:58:23.309Z,22.18
2023-01-09T11:00:51.916Z,22.17
2023-01-09T11:03:21.104Z,22.17
2023-01-09T11:05:51.837Z,22.17
2023-01-09T11:08:25.669Z,22.18
2023-01-09T11:10:55.000Z,22.18
2023-01-09T11:13:24.350Z,22.20
2023-01-09T11:16:16.320Z,22.20
2023-01-09T11:18:49.956Z,22.21
2023-01-09T11:21:33.610Z,22.22
2023-01-09T11:24:29.591Z,22.24
2023-01-09T11:27:23.756Z,22.24
2023-01-09T11:30:16.938Z,22.26
2023-01-09T11:32:46.134Z,22.26
2023-01-09T11:35:20.931Z,22.26
2023-01-09T11:37:50.135Z,22.27
2023-01-09T11:40:21.673Z,22.27
2023-01-09T11:43:07.244Z,22.28
2023-01-09T11:45:35.976Z,22.27
2023-01-09T11:48:04.666Z,22.29
2023-01-09T11:50:33.043Z,22.29
2023-01-09T11:53:14.355Z,22.28
2023-01-09T11:55:44.519Z,22.28
2023-01-09T11:58:14.104Z,22.27
2023-01-09T12:00:48.029Z,22.28
2023-01-09T12:03:20.046Z,22.27
2023-01-09T12:05:51.754Z,22.28
2023-01-09T12:08:25.615Z,22.29
2023-01-09T12:11:13.140Z,22.29
2023-01-09T12:13:51.078Z,22.30
2023-01-09T12:16:24.558Z,22.30
2023-01-09T12:19:05.673Z,22.29
2023-01-09T12:21:37.809Z,22.29
2023-01-09T12:24:40.686Z,22.30
2023-01-09T12:27:17.554Z,22.30
2023-01-09T12:30:06.238Z,22.31
2023-01-09T12:32:41.369Z,22.28
2023-01-09T12:35:18.725Z,22.30
2023-01-09T12:38:17.827Z,22.30
2023-01-09T12:40:57.051Z,22.30
2023-01-09T12:43:30.628Z,22.31
2023-01-09T12:46:04.854Z,22.32
2023-01-09T12:48:42.409Z,22.31
2023-01-09T12:51:38.629Z,22.31
2023-01-09T12:54:09.618Z,22.31
2023-01-09T12:56:39.183Z,22.31
2023-01-09T12:59:16.625Z,22.30
2023-01-09T13:01:46.561Z,22.33
2023-01-09T13:04:18.460Z,22.33
2023-01-09T13:06:49.193Z,22.32
2023-01-09T13:09:23.182Z,22.33
2023-01-09T13:11:54.795Z,22.34
2023-01-09T13:14:28.742Z,22.34
2023-01-09T13:16:56.981Z,22.35
2023-01-09T13:19:26.532Z,22.35
2023-01-09T13:21:54.792Z,22.36
2023-01-09T13:24:25.951Z,22.37
2023-01-09T13:26:55.461Z,22.37
2023-01-09T13:29:26.541Z,22.38
2023-01-09T13:32:05.795Z,22.38
2023-01-09T13:34:34.914Z,22.38
2023-01-09T13:37:03.101Z,22.39
2023-01-09T13:39:32.345Z,22.40
2023-01-09T13:42:19.044Z,22.39
2023-01-09T13:44:49.341Z,22.40
2023-01-09T13:47:19.853Z,22.40
2023-01-09T13:50:29.833Z,22.40
2023-01-09T13:52:58.229Z,22.40
2023-01-09T13:55:36.190Z,22.40
2023-01-09T13:58:22.868Z,22.40
2023-01-09T14:01:00.366Z,22.40
2023-01-09T14:03:33.553Z,22.41
2023-01-09T14:06:21.540Z,22.41
2023-01-09T14:08:50.889Z,22.41
2023-01-09T14:11:22.830Z,22.42
2023-01-09T14:14:07.656Z,22.42
2023-01-09T14:16:40.145Z,22.44
2023-01-09T14:19:27.088Z,22.44
2023-01-09T14:21:56.322Z,22.45
2023-01-09T14:24:26.695Z,22.45
2023-01-09T14:26:57.279Z,22.46
2023-01-09T14:29:46.095Z,22.48
2023-01-09T14:32:48.581Z,22.48
2023-01-09T14:35:28.735Z,22.48
2023-01-09T14:38:03.226Z,22.48
2023-01-09T14:40:31.349Z,22.49
2023-01-09T14:43:02.397Z,22.51
2023-01-09T14:45:31.732Z,22.50
2023-01-09T14:48:02.871Z,22.50
2023-01-09T14:50:34.110Z,22.50
2023-01-09T14:53:05.675Z,22.51
2023-01-09T14:55:37.389Z,22.51
2023-01-09T14:58:12.689Z,22.52
2023-01-09T15:00:48.757Z,22.51
2023-01-09T15:03:18.528Z,22.52
2023-01-09T15:05:46.820Z,22.52
2023-01-09T15:08:16.906Z,22.50
2023-01-09T15:10:45.259Z,22.49
2023-01-09T15:13:15.373Z,22.50
2023-01-09T15:15:46.104Z,22.50
2023-01-09T15:18:22.352Z,22.49
2023-01-09T15:20:55.137Z,22.49
2023-01-09T15:23:23.956Z,22.49
2023-01-09T15:25:52.036Z,22.49
2023-01-09T15:28:32.280Z,22.49
2023-01-09T15:31:04.218Z,22.50
2023-01-09T15:33:32.470Z,22.50
2023-01-09T15:36:02.695Z,22.49
2023-01-09T15:38:32.189Z,22.49
2023-01-09T15:41:01.283Z,22.50
2023-01-09T15:43:44.235Z,22.52
2023-01-09T15:46:12.520Z,22.52
2023-01-09T15:48:40.601Z,22.51
2023-01-09T15:51:10.495Z,22.52
2023-01-09T15:53:38.610Z,22.50
2023-01-09T15:56:09.033Z,22.50
2023-01-09T15:58:37.763Z,22.51
2023-01-09T16:01:08.371Z,22.50
2023-01-09T16:03:37.604Z,22.49
2023-01-09T16:06:08.757Z,22.49
2023-01-09T16:08:38.163Z,22.49
2023-01-09T16:11:07.543Z,22.50
2023-01-09T16:13:40.520Z,22.50
2023-01-09T16:16:10.280Z,22.50
2023-01-09T16:18:38.766Z,22.51
2023-01-09T16:21:31.362Z,22.51
2023-01-09T16:24:00.827Z,22.51
2023-01-09T16:26:29.307Z,22.51
2023-01-09T16:28:57.568Z,22.51
2023-01-09T16:31:29.158Z,22.51
2023-01-09T16:33:59.875Z,22.51
2023-01-09T16:36:28.773Z,22.51
2023-01-09T16:38:57.190Z,22.51
2023-01-09T16:41:42.779Z,22.51
2023-01-09T16:44:11.031Z,22.50
2023-01-09T16:46:43.339Z,22.49
2023-01-09T16:49:22.077Z,22.50
2023-01-09T16:51:50.347Z,22.49
2023-01-09T16:54:18.481Z,22.51
2023-01-09T16:56:48.490Z,22.50
2023-01-09T16:59:17.129Z,22.51
2023-01-09T17:01:46.579Z,22.52
2023-01-09T17:04:15.379Z,22.51
2023-01-09T17:06:43.780Z,22.51
2023-01-09T17:09:12.864Z,22.51
2023-01-09T17:11:41.148Z,22.51
2023-01-09T17:14:09.335Z,22.50
2023-01-09T17:16:37.525Z,22.50
2023-01-09T17:19:07.167Z,22.51
2023-01-09T17:21:35.268Z,22.51
2023-01-09T17:24:20.882Z,22.51
2023-01-09T17:27:07.932Z,22.52
2023-01-09T17:29:36.166Z,22.51
2023-01-09T17:32:04.373Z,22.52
2023-01-09T17:34:34.390Z,22.51
2023-01-09T17:37:04.364Z,22.53
2023-01-09T17:39:32.849Z,22.53
2023-01-09T17:42:02.001Z,22.53
2023-01-09T17:44:30.175Z,22.54
2023-01-09T17:46:58.309Z,22.54
2023-01-09T17:49:27.310Z,22.56
2023-01-09T17:51:56.803Z,22.55
2023-01-09T17:54:24.934Z,22.52
2023-01-09T17:56:54.194Z,22.55
2023-01-09T17:59:22.363Z,22.55
2023-01-09T18:01:50.465Z,22.56
2023-01-09T18:04:18.602Z,22.56
2023-01-09T18:06:48.292Z,22.57
2023-01-09T18:09:18.256Z,22.57
2023-01-09T18:11:47.685Z,22.58
2023-01-09T18:14:17.593Z,22.59
2023-01-09T18:16:45.807Z,22.59
2023-01-09T18:19:13.931Z,22.60
2023-01-09T18:21:42.100Z,22.61
2023-01-09T18:24:10.387Z,22.62
2023-01-09T18:26:39.975Z,22.63
2023-01-09T18:29:09.407Z,22.65
2023-01-09T18:31:37.645Z,22.69
2023-01-09T18:34:07.501Z,22.72
2023-01-09T18:36:35.714Z,22.71
2023-01-09T18:39:04.971Z,22.72
2023-01-09T18:41:33.197Z,22.73
2023-01-09T18:44:03.054Z,22.75
2023-01-09T18:46:32.407Z,22.75
2023-01-09T18:49:01.344Z,22.76
2023-01-09T18:51:29.708Z,22.78
2023-01-09T18:53:58.721Z,22.79
2023-01-09T18:56:27.269Z,22.79
2023-01-09T18:58:55.557Z,22.80
2023-01-09T19:01:25.167Z,22.81
2023-01-09T19:03:53.460Z,22.83
2023-01-09T19:06:21.648Z,22.82
2023-01-09T19:08:50.041Z,22.82
2023-01-09T19:11:18.143Z,22.81
2023-01-09T19:13:46.291Z,22.80
2023-01-09T19:16:14.732Z,22.80
2023-01-09T19:18:44.646Z,22.79
2023-01-09T19:21:14.109Z,22.80
2023-01-09T19:23:42.771Z,22.79
2023-01-09T19:26:16.665Z,22.78
2023-01-09T19:28:46.731Z,22.79
2023-01-09T19:31:15.165Z,22.77
2023-01-09T19:33:44.661Z,22.77
2023-01-09T19:36:12.931Z,22.77
2023-01-09T19:38:41.192Z,22.77
2023-01-09T19:41:13.152Z,22.76
2023-01-09T19:43:41.421Z,22.76
2023-01-09T19:46:09.984Z,22.76
2023-01-09T19:48:38.208Z,22.75
2023-01-09T19:51:08.949Z,22.75
2023-01-09T19:53:37.279Z,22.76
2023-01-09T19:56:12.369Z,22.76
2023-01-09T19:58:40.636Z,22.75
2023-01-09T20:01:10.370Z,22.75
2023-01-09T20:03:38.712Z,22.75
2023-01-09T20:06:10.061Z,22.76
2023-01-09T20:08:38.226Z,22.75
2023-01-09T20:11:06.715Z,22.75
2023-01-09T20:13:35.002Z,22.76
2023-01-09T20:16:03.669Z,22.75
2023-01-09T20:18:31.970Z,22.75
2023-01-09T20:21:00.139Z,22.77
2023-01-09T20:23:32.391Z,22.76
2023-01-09T20:26:00.894Z,22.76
2023-01-09T20:28:29.143Z,22.77
2023-01-09T20:30:57.309Z,22.76
2023-01-09T20:33:25.598Z,22.76
2023-01-09T20:35:53.819Z,22.76
2023-01-09T20:38:23.527Z,22.76
2023-01-09T20:40:57.309Z,22.76
2023-01-09T20:43:26.522Z,22.76
2023-01-09T20:45:54.819Z,22.77
2023-01-09T20:48:23.000Z,22.76
2023-01-09T20:50:51.148Z,22.77
2023-01-09T20:53:19.445Z,22.77
2023-01-09T20:55:47.582Z,22.77
2023-01-09T20:58:17.328Z,22.77
2023-01-09T21:00:45.473Z,22.79
2023-01-09T21:03:16.741Z,22.78
2023-01-09T21:05:44.887Z,22.78
2023-01-09T21:08:13.009Z,22.77
2023-01-09T21:10:41.191Z,22.77
2023-01-09T21:13:09.281Z,22.79
2023-01-09T21:15:39.979Z,22.77
2023-01-09T21:18:08.102Z,22.79
2023-01-09T21:20:36.202Z,22.78
2023-01-09T21:23:04.368Z,22.79
2023-01-09T21:25:32.436Z,22.78
2023-01-09T21:28:00.644Z,22.79
2023-01-09T21:30:28.723Z,22.80
2023-01-09T21:32:58.280Z,22.80
2023-01-09T21:35:26.471Z,22.80
2023-01-09T21:37:54.645Z,22.81
2023-01-09T21:40:23.100Z,22.81
2023-01-09T21:43:08.605Z,22.81
2023-01-09T21:45:56.062Z,22.79
2023-01-09T21:48:25.728Z,22.79
2023-01-09T21:50:53.935Z,22.80
2023-01-09T21:53:22.023Z,22.79
2023-01-09T21:55:50.143Z,22.80
2023-01-09T21:58:18.240Z,22.79
2023-01-09T22:00:46.379Z,22.78
2023-01-09T22:03:17.340Z,22.79
2023-01-09T22:05:46.894Z,22.77
2023-01-09T22:08:15.004Z,22.77
2023-01-09T22:10:43.053Z,22.77
2023-01-09T22:13:17.918Z,22.76
2023-01-09T22:15:47.517Z,22.75
2023-01-09T22:18:15.658Z,22.76
2023-01-09T22:20:43.780Z,22.75
2023-01-09T22:23:13.259Z,22.75
2023-01-09T22:25:42.061Z,22.71
2023-01-09T22:28:11.204Z,22.67
2023-01-09T22:30:40.789Z,22.63
2023-01-09T22:33:10.795Z,22.59
2023-01-09T22:35:38.916Z,22.58
2023-01-09T22:38:07.000Z,22.55
2023-01-09T22:40:37.539Z,22.53
2023-01-09T22:43:06.058Z,22.50
2023-01-09T22:45:34.813Z,22.48
2023-01-09T22:48:02.942Z,22.46
2023-01-09T22:50:31.094Z,22.44
2023-01-09T22:52:59.204Z,22.43
2023-01-09T22:55:27.407Z,22.40
2023-01-09T22:57:56.967Z,22.39
2023-01-09T23:00:25.284Z,22.38
2023-01-09T23:02:53.515Z,22.37
2023-01-09T23:05:21.791Z,22.35
2023-01-09T23:07:49.856Z,22.36
2023-01-09T23:10:18.123Z,22.36
2023-01-09T23:12:48.542Z,22.36
2023-01-09T23:15:18.306Z,22.37
2023-01-09T23:17:46.533Z,22.36
2023-01-09T23:20:14.671Z,22.32
2023-01-09T23:22:42.876Z,22.31
2023-01-09T23:25:14.356Z,22.28
2023-01-09T23:27:42.651Z,22.28
2023-01-09T23:30:12.665Z,22.25
2023-01-09T23:32:42.169Z,22.24
2023-01-09T23:35:10.658Z,22.23
2023-01-09T23:37:38.801Z,22.22
2023-01-09T23:40:07.709Z,22.22
2023-01-09T23:42:53.312Z,22.20
2023-01-09T23:45:22.938Z,22.19
2023-01-09T23:47:52.608Z,22.18
2023-01-09T23:50:21.060Z,22.17
2023-01-09T23:52:49.114Z,22.15
2023-01-09T23:55:17.437Z,22.15
2023-01-09T23:57:45.492Z,22.13
